createdAt,value
2022-08-05T00:00:16.116Z,4.20
2022-08-05T00:02:49.133Z,6.53
2022-08-05T00:06:02.011Z,4.03
2022-08-05T00:08:34.123Z,7.67
2022-08-05T00:11:00.365Z,5.40
2022-08-05T00:13:38.319Z,3.93
2022-08-05T00:16:08.745Z,4.10
2022-08-05T00:18:37.907Z,5.80
2022-08-05T00:21:08.563Z,2.67
2022-08-05T00:23:46.555Z,3.73
2022-08-05T00:26:22.028Z,3.90
2022-08-05T00:28:51.006Z,5.30
2022-08-05T00:31:41.440Z,3.80
2022-08-05T00:34:54.423Z,6.53
2022-08-05T00:37:10.347Z,5.13
2022-08-05T00:39:57.429Z,4.60
2022-08-05T00:42:33.474Z,3.40
2022-08-05T00:45:01.790Z,4.00
2022-08-05T00:47:53.246Z,4.10
2022-08-05T00:50:18.660Z,7.43
2022-08-05T00:52:50.668Z,6.17
2022-08-05T00:55:21.676Z,6.03
2022-08-05T00:57:58.720Z,6.03
2022-08-05T01:00:28.191Z,6.40
2022-08-05T01:02:56.910Z,4.27
2022-08-05T01:05:27.540Z,6.97
2022-08-05T01:08:39.950Z,6.07
2022-08-05T01:10:52.229Z,4.40
2022-08-05T01:13:27.558Z,8.80
2022-08-05T01:16:14.950Z,6.73
2022-08-05T01:18:56.344Z,6.63
2022-08-05T01:21:38.153Z,4.20
2022-08-05T01:24:14.465Z,5.50
2022-08-05T01:26:49.785Z,4.70
2022-08-05T01:29:23.241Z,5.40
2022-08-05T01:31:52.822Z,5.60
2022-08-05T01:34:22.264Z,6.67
2022-08-05T01:37:00.450Z,8.30
2022-08-05T01:39:45.801Z,4.40
2022-08-05T01:42:17.946Z,10.60
2022-08-05T01:44:54.165Z,4.03
2022-08-05T01:47:23.962Z,5.57
2022-08-05T01:50:01.652Z,5.73
2022-08-05T01:52:31.661Z,6.47
2022-08-05T01:55:04.359Z,12.83
2022-08-05T01:58:11.438Z,12.60
2022-08-05T02:00:30.016Z,11.10
2022-08-05T02:03:00.007Z,13.17
2022-08-05T02:05:34.147Z,5.33
2022-08-05T02:08:02.700Z,14.80
2022-08-05T02:10:33.015Z,11.07
2022-08-05T02:13:04.807Z,7.27
2022-08-05T02:15:48.338Z,6.87
2022-08-05T02:18:30.572Z,10.27
2022-08-05T02:21:06.537Z,6.53
2022-08-05T02:23:44.071Z,5.97
2022-08-05T02:26:15.342Z,4.60
2022-08-05T02:28:46.801Z,5.43
2022-08-05T02:31:21.151Z,8.70
2022-08-05T02:33:57.261Z,7.60
2022-08-05T02:36:27.893Z,10.00
2022-08-05T02:39:00.492Z,9.17
2022-08-05T02:41:36.412Z,8.77
2022-08-05T02:44:13.523Z,10.00
2022-08-05T02:46:58.765Z,9.60
2022-08-05T02:49:36.354Z,10.10
2022-08-05T02:52:07.829Z,9.77
2022-08-05T02:54:41.368Z,13.60
2022-08-05T02:58:10.664Z,9.53
2022-08-05T03:00:01.505Z,10.13
2022-08-05T03:02:33.411Z,11.23
2022-08-05T03:05:02.551Z,10.47
2022-08-05T03:08:00.704Z,11.37
2022-08-05T03:10:24.440Z,11.20
2022-08-05T03:12:54.017Z,11.70
2022-08-05T03:15:24.345Z,12.30
2022-08-05T03:17:55.838Z,10.00
2022-08-05T03:20:26.287Z,10.83
2022-08-05T03:22:55.189Z,13.27
2022-08-05T03:25:33.392Z,6.77
2022-08-05T03:28:14.242Z,9.70
2022-08-05T03:30:42.750Z,12.20
2022-08-05T03:33:12.530Z,11.70
2022-08-05T03:35:41.880Z,4.03
2022-08-05T03:38:12.375Z,10.23
2022-08-05T03:40:45.254Z,11.83
2022-08-05T03:44:09.068Z,11.20
2022-08-05T03:46:08.225Z,5.73
2022-08-05T03:48:37.968Z,8.20
2022-08-05T03:52:37.589Z,5.27
2022-08-05T03:55:00.536Z,5.80
2022-08-05T03:56:50.479Z,3.70
2022-08-05T03:59:24.664Z,5.37
2022-08-05T04:01:53.489Z,8.23
2022-08-05T04:04:28.920Z,9.13
2022-08-05T04:06:57.371Z,5.97
2022-08-05T04:09:26.188Z,7.50
2022-08-05T04:11:56.701Z,6.33
2022-08-05T04:14:30.208Z,5.80
2022-08-05T04:16:59.655Z,7.73
2022-08-05T04:19:29.535Z,6.23
2022-08-05T04:22:09.468Z,6.20
2022-08-05T04:24:44.127Z,6.50
2022-08-05T04:27:13.581Z,6.63
2022-08-05T04:29:42.292Z,7.47
2022-08-05T04:32:10.930Z,7.73
2022-08-05T04:34:42.952Z,6.63
2022-08-05T04:37:12.770Z,5.93
2022-08-05T04:39:41.440Z,8.00
2022-08-05T04:42:10.364Z,12.30
2022-08-05T04:44:39.213Z,8.10
2022-08-05T04:47:09.618Z,11.43
2022-08-05T04:50:01.898Z,7.97
2022-08-05T04:52:34.741Z,8.83
2022-08-05T04:55:14.498Z,22.43
2022-08-05T04:57:47.515Z,9.60
2022-08-05T05:00:16.871Z,27.73
2022-08-05T05:02:45.245Z,9.63
2022-08-05T05:05:26.521Z,7.50
2022-08-05T05:08:02.293Z,9.30
2022-08-05T05:10:33.358Z,8.87
2022-08-05T05:13:04.362Z,20.07
2022-08-05T05:15:57.220Z,10.87
2022-08-05T05:18:28.689Z,8.30
2022-08-05T05:21:01.674Z,17.17
2022-08-05T05:23:50.348Z,12.60
2022-08-05T05:26:19.609Z,17.07
2022-08-05T05:28:57.196Z,10.27
2022-08-05T05:31:25.500Z,11.83
2022-08-05T05:34:02.252Z,15.07
2022-08-05T05:36:31.179Z,39.50
2022-08-05T05:39:03.806Z,14.00
2022-08-05T05:41:40.415Z,18.03
2022-08-05T05:44:35.638Z,12.13
2022-08-05T05:46:58.419Z,24.57
2022-08-05T05:49:33.781Z,12.50
2022-08-05T05:52:05.920Z,13.13
2022-08-05T05:54:50.070Z,15.00
2022-08-05T05:57:19.370Z,13.60
2022-08-05T05:59:48.981Z,19.40
2022-08-05T06:02:32.870Z,27.23
2022-08-05T06:05:10.136Z,14.97
2022-08-05T06:07:57.834Z,15.80
2022-08-05T06:10:34.519Z,17.77
2022-08-05T06:13:06.132Z,12.60
2022-08-05T06:16:30.016Z,19.83
2022-08-05T06:18:30.954Z,19.83
2022-08-05T06:21:00.043Z,15.20
2022-08-05T06:23:43.509Z,14.90
2022-08-05T06:26:21.367Z,23.60
2022-08-05T06:28:50.085Z,21.03
2022-08-05T06:31:22.319Z,17.97
2022-08-05T06:34:06.985Z,47.53
2022-08-05T06:36:37.399Z,19.67
2022-08-05T06:39:27.605Z,28.67
2022-08-05T06:41:58.823Z,42.00
2022-08-05T06:44:27.888Z,46.07
2022-08-05T06:46:56.281Z,22.80
2022-08-05T06:50:00.701Z,24.53
2022-08-05T06:52:36.600Z,22.13
2022-08-05T06:55:01.085Z,45.30
2022-08-05T06:57:58.043Z,20.70
2022-08-05T07:00:24.587Z,21.80
2022-08-05T07:02:54.306Z,26.50
2022-08-05T07:05:36.855Z,21.63
2022-08-05T07:08:05.557Z,37.13
2022-08-05T07:10:33.859Z,32.97
2022-08-05T07:13:34.119Z,30.07
2022-08-05T07:17:59.178Z,30.90
2022-08-05T07:19:31.809Z,20.70
2022-08-05T07:22:03.670Z,14.03
2022-08-05T07:24:35.060Z,18.80
2022-08-05T07:27:12.410Z,17.90
2022-08-05T07:30:24.043Z,20.00
2022-08-05T07:32:36.530Z,18.87
2022-08-05T07:36:03.138Z,17.77
2022-08-05T07:37:57.067Z,16.03
2022-08-05T07:40:32.403Z,14.10
2022-08-05T07:43:04.740Z,14.67
2022-08-05T07:45:58.094Z,11.83
2022-08-05T07:49:00.634Z,13.73
2022-08-05T07:51:23.520Z,22.00
2022-08-05T07:54:04.336Z,14.20
2022-08-05T07:57:00.516Z,15.47
2022-08-05T07:59:22.063Z,15.20
2022-08-05T08:02:02.293Z,12.57
2022-08-05T08:04:38.201Z,11.10
2022-08-05T08:07:07.196Z,14.20
2022-08-05T08:09:35.758Z,10.40
2022-08-05T08:12:19.063Z,11.40
2022-08-05T08:14:54.617Z,13.37
2022-08-05T08:17:24.494Z,10.60
2022-08-05T08:20:43.336Z,13.03
2022-08-05T08:22:44.451Z,10.43
2022-08-05T08:25:16.222Z,11.13
2022-08-05T08:27:47.812Z,10.97
2022-08-05T08:30:32.374Z,9.57
2022-08-05T08:33:13.555Z,10.90
2022-08-05T08:35:53.137Z,10.80
2022-08-05T08:38:35.425Z,11.53
2022-08-05T08:41:06.561Z,11.77
2022-08-05T08:45:18.161Z,11.70
2022-08-05T08:46:24.951Z,8.90
2022-08-05T08:49:07.488Z,10.13
2022-08-05T08:52:02.821Z,8.33
2022-08-05T08:54:33.279Z,8.90
2022-08-05T08:57:05.966Z,7.50
2022-08-05T08:59:41.956Z,7.40
2022-08-05T09:02:16.750Z,10.40
2022-08-05T09:04:58.263Z,7.27
2022-08-05T09:07:39.788Z,7.00
2022-08-05T09:10:27.099Z,10.10
2022-08-05T09:12:56.790Z,9.87
2022-08-05T09:15:28.230Z,5.83
2022-08-05T09:17:58.794Z,8.20
2022-08-05T09:20:36.467Z,5.60
2022-08-05T09:23:07.836Z,5.93
2022-08-05T09:26:01.628Z,4.83
2022-08-05T09:28:32.192Z,6.53
2022-08-05T09:31:43.960Z,5.47
2022-08-05T09:33:53.824Z,5.37
2022-08-05T09:36:27.689Z,5.97
2022-08-05T09:39:03.006Z,5.63
2022-08-05T09:41:33.215Z,4.70
2022-08-05T09:44:07.419Z,5.73
2022-08-05T09:46:39.385Z,6.70
2022-08-05T09:49:54.661Z,7.70
2022-08-05T09:52:25.672Z,5.03
2022-08-05T09:54:55.323Z,5.60
2022-08-05T09:57:35.315Z,5.20
2022-08-05T10:00:11.371Z,7.97
2022-08-05T10:02:40.331Z,4.77
2022-08-05T10:05:10.692Z,3.83
2022-08-05T10:08:36.831Z,5.20
2022-08-05T10:10:39.293Z,5.23
2022-08-05T10:13:10.088Z,9.53
2022-08-05T10:15:41.334Z,5.70
2022-08-05T10:18:11.649Z,5.80
2022-08-05T10:20:41.679Z,5.00
2022-08-05T10:23:34.104Z,8.97
2022-08-05T10:26:01.434Z,5.60
2022-08-05T10:28:30.715Z,7.90
2022-08-05T10:32:48.044Z,6.50
2022-08-05T10:33:52.249Z,6.50
2022-08-05T10:36:23.549Z,6.93
2022-08-05T10:38:58.342Z,5.30
2022-08-05T10:41:46.598Z,6.77
2022-08-05T10:44:18.980Z,7.87
2022-08-05T10:46:50.592Z,8.13
2022-08-05T10:49:26.859Z,6.17
2022-08-05T10:52:03.263Z,6.37
2022-08-05T10:54:56.766Z,7.17
2022-08-05T10:57:32.325Z,6.10
2022-08-05T11:00:16.373Z,5.77
2022-08-05T11:03:25.001Z,12.20
2022-08-05T11:06:15.049Z,15.10
2022-08-05T11:08:59.429Z,5.77
2022-08-05T11:11:44.795Z,8.43
2022-08-05T11:14:42.918Z,9.77
2022-08-05T11:17:58.178Z,8.63
2022-08-05T11:20:37.555Z,6.00
2022-08-05T11:23:25.938Z,12.50
2022-08-05T11:26:08.897Z,7.37
2022-08-05T11:28:44.245Z,8.53
2022-08-05T11:31:57.202Z,6.47
2022-08-05T11:34:14.719Z,10.70
2022-08-05T11:36:52.882Z,8.90
2022-08-05T11:39:40.451Z,11.33
2022-08-05T11:42:18.711Z,10.00
2022-08-05T11:44:53.848Z,13.53
2022-08-05T11:47:48.167Z,9.10
2022-08-05T11:50:14.124Z,10.23
2022-08-05T11:52:44.126Z,13.83
2022-08-05T11:55:16.461Z,8.13
2022-08-05T11:58:09.711Z,15.83
2022-08-05T12:00:38.319Z,9.20
2022-08-05T12:03:23.977Z,7.47
2022-08-05T12:06:00.344Z,7.70
2022-08-05T12:08:31.739Z,8.17
2022-08-05T12:11:05.479Z,8.57
2022-08-05T12:13:49.631Z,9.20
2022-08-05T12:16:25.336Z,7.20
2022-08-05T12:18:54.082Z,10.03
2022-08-05T12:21:23.929Z,8.00
2022-08-05T12:23:56.587Z,7.00
2022-08-05T12:26:25.055Z,7.43
2022-08-05T12:28:54.322Z,7.90
2022-08-05T12:31:33.067Z,8.37
2022-08-05T12:34:20.565Z,11.63
2022-08-05T12:36:53.202Z,7.03
2022-08-05T12:39:21.673Z,9.80
2022-08-05T12:41:57.894Z,8.67
2022-08-05T12:44:33.837Z,7.13
2022-08-05T12:47:04.354Z,9.70
2022-08-05T12:50:01.959Z,9.00
2022-08-05T12:52:38.673Z,6.80
2022-08-05T12:55:21.967Z,10.70
2022-08-05T12:58:49.373Z,6.20
2022-08-05T13:02:01.452Z,8.90
2022-08-05T13:03:34.223Z,8.43
2022-08-05T13:06:10.526Z,9.83
2022-08-05T13:08:40.403Z,7.70
2022-08-05T13:11:08.943Z,7.53
2022-08-05T13:14:05.202Z,8.60
2022-08-05T13:16:28.910Z,8.97
2022-08-05T13:18:59.144Z,7.03
2022-08-05T13:21:28.433Z,11.77
2022-08-05T13:24:08.561Z,9.33
2022-08-05T13:26:37.512Z,6.30
2022-08-05T13:29:06.210Z,7.93
2022-08-05T13:32:04.101Z,10.13
2022-08-05T13:34:26.218Z,6.40
2022-08-05T13:36:54.867Z,7.07
2022-08-05T13:40:14.030Z,6.90
2022-08-05T13:42:13.948Z,6.13
2022-08-05T13:44:45.907Z,5.70
2022-08-05T13:47:36.113Z,6.60
2022-08-05T13:50:08.518Z,4.30
2022-08-05T13:52:38.682Z,5.40
2022-08-05T13:55:10.000Z,6.83
2022-08-05T13:57:50.851Z,4.63
2022-08-05T14:00:26.968Z,6.27
2022-08-05T14:02:56.228Z,5.27
2022-08-05T14:05:48.463Z,5.00
2022-08-05T14:08:21.335Z,4.67
2022-08-05T14:10:59.661Z,6.47
2022-08-05T14:13:32.224Z,4.70
2022-08-05T14:16:08.774Z,8.17
2022-08-05T14:18:39.956Z,5.33
2022-08-05T14:22:06.984Z,8.03
2022-08-05T14:24:00.659Z,6.03
2022-08-05T14:26:36.969Z,6.77
2022-08-05T14:29:16.493Z,6.63
2022-08-05T14:32:02.630Z,5.80
2022-08-05T14:34:35.664Z,4.10
2022-08-05T14:37:05.556Z,5.57
2022-08-05T14:39:49.335Z,3.97
2022-08-05T14:42:22.911Z,6.53
2022-08-05T14:44:53.305Z,4.73
2022-08-05T14:48:04.066Z,5.30
2022-08-05T14:50:18.293Z,4.20
2022-08-05T14:52:58.420Z,4.50
2022-08-05T14:55:28.749Z,5.90
2022-08-05T14:58:10.850Z,8.93
2022-08-05T15:00:57.927Z,5.00
2022-08-05T15:03:27.404Z,3.70
2022-08-05T15:06:08.127Z,4.60
2022-08-05T15:08:59.553Z,4.87
2022-08-05T15:11:52.656Z,4.27
2022-08-05T15:14:35.066Z,9.13
2022-08-05T15:17:20.835Z,4.20
2022-08-05T15:19:57.514Z,3.30
2022-08-05T15:22:27.226Z,3.33
2022-08-05T15:24:59.065Z,6.07
2022-08-05T15:27:36.077Z,4.60
2022-08-05T15:30:04.605Z,5.90
2022-08-05T15:32:33.187Z,3.70
2022-08-05T15:35:09.805Z,3.23
2022-08-05T15:38:08.752Z,5.67
2022-08-05T15:40:59.777Z,3.83
2022-08-05T15:43:20.175Z,9.20
2022-08-05T15:46:00.078Z,5.00
2022-08-05T15:48:29.642Z,4.27
2022-08-05T15:51:03.294Z,3.33
2022-08-05T15:53:38.485Z,4.77
2022-08-05T15:56:20.600Z,3.20
2022-08-05T15:58:53.262Z,3.57
2022-08-05T16:01:29.534Z,3.20
2022-08-05T16:04:10.435Z,3.63
2022-08-05T16:06:40.186Z,3.90
2022-08-05T16:09:10.683Z,3.60
2022-08-05T16:11:43.457Z,2.70
2022-08-05T16:14:17.190Z,3.50
2022-08-05T16:16:46.805Z,3.93
2022-08-05T16:20:02.369Z,3.20
2022-08-05T16:22:10.588Z,3.23
2022-08-05T16:24:51.240Z,1.93
2022-08-05T16:27:46.793Z,3.50
2022-08-05T16:30:26.415Z,5.00
2022-08-05T16:32:57.911Z,7.80
2022-08-05T16:35:32.400Z,4.60
2022-08-05T16:38:18.822Z,3.10
2022-08-05T16:40:59.572Z,2.30
2022-08-05T16:43:33.999Z,2.53
2022-08-05T16:46:13.137Z,3.90
2022-08-05T16:48:53.347Z,2.47
2022-08-05T16:51:24.526Z,3.03
2022-08-05T16:54:05.064Z,3.60
2022-08-05T16:56:41.876Z,4.23
2022-08-05T16:59:16.778Z,2.30
2022-08-05T17:01:54.043Z,2.43
2022-08-05T17:04:26.286Z,2.30
2022-08-05T17:06:56.922Z,2.07
2022-08-05T17:09:28.331Z,1.97
2022-08-05T17:11:59.796Z,3.83
2022-08-05T17:14:37.515Z,4.53
2022-08-05T17:17:15.029Z,3.97
2022-08-05T17:19:45.286Z,2.63
2022-08-05T17:22:24.723Z,2.63
2022-08-05T17:24:57.866Z,2.47
2022-08-05T17:27:27.480Z,2.33
2022-08-05T17:30:03.708Z,3.37
2022-08-05T17:32:34.675Z,2.60
2022-08-05T17:35:03.977Z,2.60
2022-08-05T17:37:40.126Z,3.17
2022-08-05T17:40:12.170Z,4.80
2022-08-05T17:42:42.863Z,2.27
2022-08-05T17:45:22.032Z,2.60
2022-08-05T17:47:54.616Z,1.60
2022-08-05T17:50:29.585Z,2.63
2022-08-05T17:53:00.376Z,1.93
2022-08-05T17:55:37.912Z,1.73
2022-08-05T17:58:09.342Z,2.77
2022-08-05T18:00:39.942Z,2.90
2022-08-05T18:03:23.763Z,2.67
2022-08-05T18:06:04.400Z,1.87
2022-08-05T18:08:33.997Z,2.20
2022-08-05T18:11:03.094Z,2.33
2022-08-05T18:13:36.673Z,3.70
2022-08-05T18:16:09.556Z,1.40
2022-08-05T18:18:42.096Z,2.80
2022-08-05T18:21:21.114Z,4.77
2022-08-05T18:23:53.748Z,3.63
2022-08-05T18:26:29.375Z,2.70
2022-08-05T18:29:00.461Z,1.87
2022-08-05T18:31:33.090Z,2.40
2022-08-05T18:34:03.702Z,2.10
2022-08-05T18:36:35.964Z,1.97
2022-08-05T18:39:09.587Z,5.33
2022-08-05T18:41:57.226Z,2.67
2022-08-05T18:44:35.084Z,2.00
2022-08-05T18:47:05.529Z,2.80
2022-08-05T18:49:58.078Z,7.33
2022-08-05T18:52:35.982Z,2.60
2022-08-05T18:55:05.529Z,3.30
2022-08-05T18:57:43.148Z,2.40
2022-08-05T19:00:20.476Z,2.53
2022-08-05T19:02:51.634Z,4.10
2022-08-05T19:06:12.425Z,1.93
2022-08-05T19:08:13.499Z,1.60
2022-08-05T19:10:42.118Z,2.43
2022-08-05T19:13:12.315Z,4.70
2022-08-05T19:15:56.875Z,2.30
2022-08-05T19:18:30.154Z,1.70
2022-08-05T19:20:59.789Z,2.57
2022-08-05T19:24:05.319Z,2.10
2022-08-05T19:26:19.702Z,2.20
2022-08-05T19:28:47.993Z,1.43
2022-08-05T19:31:17.842Z,2.10
2022-08-05T19:33:56.711Z,1.70
2022-08-05T19:36:25.726Z,2.47
2022-08-05T19:38:55.139Z,2.03
2022-08-05T19:42:05.690Z,4.03
2022-08-05T19:44:18.705Z,2.27
2022-08-05T19:46:47.384Z,1.60
2022-08-05T19:49:20.012Z,1.90
2022-08-05T19:52:05.861Z,2.97
2022-08-05T19:54:37.274Z,2.37
2022-08-05T19:57:09.256Z,1.50
2022-08-05T19:59:59.598Z,2.03
2022-08-05T20:02:27.696Z,2.47
2022-08-05T20:04:58.840Z,2.77
2022-08-05T20:07:48.347Z,2.30
2022-08-05T20:10:16.771Z,1.73
2022-08-05T20:12:45.940Z,1.67
2022-08-05T20:15:23.454Z,3.23
2022-08-05T20:18:10.950Z,2.17
2022-08-05T20:20:56.170Z,2.43
2022-08-05T20:23:40.656Z,2.43
2022-08-05T20:26:15.961Z,2.50
2022-08-05T20:28:48.003Z,2.27
2022-08-05T20:31:16.869Z,3.60
2022-08-05T20:33:45.600Z,4.50
2022-08-05T20:36:17.895Z,2.30
2022-08-05T20:38:54.411Z,1.70
2022-08-05T20:41:27.483Z,3.83
2022-08-05T20:44:17.654Z,2.00
2022-08-05T20:46:57.005Z,7.73
2022-08-05T20:49:26.393Z,3.80
2022-08-05T20:51:57.225Z,2.80
2022-08-05T20:54:55.403Z,1.60
2022-08-05T20:57:42.050Z,2.83
2022-08-05T21:00:20.320Z,3.33
2022-08-05T21:02:57.119Z,3.03
2022-08-05T21:05:38.045Z,4.10
2022-08-05T21:08:15.894Z,3.20
2022-08-05T21:10:48.440Z,3.93
2022-08-05T21:13:36.724Z,2.27
2022-08-05T21:16:05.399Z,6.10
2022-08-05T21:18:34.041Z,7.07
2022-08-05T21:21:04.081Z,1.70
2022-08-05T21:23:37.057Z,3.23
2022-08-05T21:26:12.629Z,1.80
2022-08-05T21:28:47.869Z,3.90
2022-08-05T21:31:19.273Z,2.30
2022-08-05T21:33:49.359Z,2.70
2022-08-05T21:36:19.393Z,3.77
2022-08-05T21:38:59.533Z,4.03
2022-08-05T21:41:32.988Z,2.07
2022-08-05T21:44:04.108Z,2.80
2022-08-05T21:46:34.594Z,3.67
2022-08-05T21:49:04.756Z,2.60
2022-08-05T21:52:22.106Z,2.13
2022-08-05T21:54:27.974Z,3.30
2022-08-05T21:57:29.214Z,3.10
2022-08-05T22:00:03.980Z,2.80
2022-08-05T22:02:34.812Z,2.67
2022-08-05T22:05:04.341Z,5.17
2022-08-05T22:07:40.200Z,3.00
2022-08-05T22:10:25.553Z,1.80
2022-08-05T22:12:55.510Z,3.17
2022-08-05T22:16:02.035Z,1.80
2022-08-05T22:18:14.935Z,2.70
2022-08-05T22:20:44.213Z,2.33
2022-08-05T22:24:03.359Z,3.93
2022-08-05T22:26:37.997Z,3.40
2022-08-05T22:29:07.032Z,2.20
2022-08-05T22:31:44.854Z,2.13
2022-08-05T22:34:25.625Z,4.00
2022-08-05T22:36:58.411Z,3.93
2022-08-05T22:39:33.051Z,4.27
2022-08-05T22:42:11.631Z,2.40
2022-08-05T22:44:41.124Z,7.63
2022-08-05T22:47:29.985Z,3.00
2022-08-05T22:50:23.114Z,2.40
2022-08-05T22:52:48.028Z,3.63
2022-08-05T22:55:19.197Z,3.63
2022-08-05T22:57:51.028Z,3.57
2022-08-05T23:00:20.779Z,5.17
2022-08-05T23:02:50.313Z,2.70
2022-08-05T23:05:19.085Z,2.73
2022-08-05T23:07:50.767Z,2.37
2022-08-05T23:10:20.264Z,4.77
2022-08-05T23:12:51.600Z,3.50
2022-08-05T23:15:29.084Z,3.80
2022-08-05T23:18:00.823Z,5.27
2022-08-05T23:20:30.420Z,3.53
2022-08-05T23:22:58.981Z,3.20
2022-08-05T23:25:53.302Z,4.93
2022-08-05T23:28:17.344Z,7.53
2022-08-05T23:30:53.349Z,3.00
2022-08-05T23:34:02.702Z,2.77
2022-08-05T23:36:13.657Z,3.20
2022-08-05T23:38:42.807Z,4.03
2022-08-05T23:41:11.830Z,4.13
2022-08-05T23:44:05.366Z,5.80
2022-08-05T23:46:30.952Z,2.80
2022-08-05T23:49:01.946Z,7.13
2022-08-05T23:52:01.607Z,5.27
2022-08-05T23:54:36.513Z,7.70
2022-08-05T23:57:06.979Z,6.00
